sensor_id;sensor_type;location;lat;lon;timestamp;pressure;altitude;pressure_sealevel;temperature
75431;BMP280;64127;51.488;5.462;2023-11-19T00:00:39;100736.56;;;14.71
75431;BMP280;64127;51.488;5.462;2023-11-19T00:03:11;100721.59;;;14.70
75431;BMP280;64127;51.488;5.462;2023-11-19T00:05:45;100730.50;;;14.76
75431;BMP280;64127;51.488;5.462;2023-11-19T00:08:17;100728.72;;;14.75
75431;BMP280;64127;51.488;5.462;2023-11-19T00:10:50;100737.59;;;14.78
75431;BMP280;64127;51.488;5.462;2023-11-19T00:13:22;100719.13;;;14.78
75431;BMP280;64127;51.488;5.462;2023-11-19T00:15:55;100714.75;;;14.79
75431;BMP280;64127;51.488;5.462;2023-11-19T00:18:28;100703.31;;;14.80
75431;BMP280;64127;51.488;5.462;2023-11-19T00:21:00;100695.38;;;14.80
75431;BMP280;64127;51.488;5.462;2023-11-19T00:23:33;100695.47;;;14.83
75431;BMP280;64127;51.488;5.462;2023-11-19T00:26:05;100690.19;;;14.83
75431;BMP280;64127;51.488;5.462;2023-11-19T00:28:38;100690.25;;;14.86
75431;BMP280;64127;51.488;5.462;2023-11-19T00:31:10;100670.91;;;14.87
75431;BMP280;64127;51.488;5.462;2023-11-19T00:33:42;100670.03;;;14.86
75431;BMP280;64127;51.488;5.462;2023-11-19T00:36:17;100653.31;;;14.87
75431;BMP280;64127;51.488;5.462;2023-11-19T00:38:50;100661.28;;;14.89
75431;BMP280;64127;51.488;5.462;2023-11-19T00:41:22;100663.94;;;14.89
75431;BMP280;64127;51.488;5.462;2023-11-19T00:43:54;100673.59;;;14.88
75431;BMP280;64127;51.488;5.462;2023-11-19T00:46:27;100674.50;;;14.89
75431;BMP280;64127;51.488;5.462;2023-11-19T00:48:59;100670.00;;;14.85
75431;BMP280;64127;51.488;5.462;2023-11-19T00:51:32;100678.88;;;14.88
75431;BMP280;64127;51.488;5.462;2023-11-19T00:54:05;100667.41;;;14.88
75431;BMP280;64127;51.488;5.462;2023-11-19T00:56:37;100672.69;;;14.88
75431;BMP280;64127;51.488;5.462;2023-11-19T00:59:09;100674.50;;;14.89
75431;BMP280;64127;51.488;5.462;2023-11-19T01:01:41;100679.75;;;14.89
75431;BMP280;64127;51.488;5.462;2023-11-19T01:04:14;100671.81;;;14.87
75431;BMP280;64127;51.488;5.462;2023-11-19T01:06:46;100663.81;;;14.84
75431;BMP280;64127;51.488;5.462;2023-11-19T01:09:20;100673.59;;;14.88
75431;BMP280;64127;51.488;5.462;2023-11-19T01:11:53;100677.13;;;14.89
75431;BMP280;64127;51.488;5.462;2023-11-19T01:14:26;100685.03;;;14.89
75431;BMP280;64127;51.488;5.462;2023-11-19T01:16:59;100679.75;;;14.89
75431;BMP280;64127;51.488;5.462;2023-11-19T01:19:31;100682.41;;;14.89
75431;BMP280;64127;51.488;5.462;2023-11-19T01:22:03;100692.09;;;14.90
75431;BMP280;64127;51.488;5.462;2023-11-19T01:24:35;100670.03;;;14.86
75431;BMP280;64127;51.488;5.462;2023-11-19T01:27:07;100662.19;;;14.91
75431;BMP280;64127;51.488;5.462;2023-11-19T01:29:40;100657.81;;;14.91
75431;BMP280;64127;51.488;5.462;2023-11-19T01:32:12;100656.06;;;14.92
75431;BMP280;64127;51.488;5.462;2023-11-19T01:34:44;100649.84;;;14.90
75431;BMP280;64127;51.488;5.462;2023-11-19T01:37:16;100667.47;;;14.91
75431;BMP280;64127;51.488;5.462;2023-11-19T01:39:49;100656.91;;;14.91
75431;BMP280;64127;51.488;5.462;2023-11-19T01:42:30;100662.19;;;14.89
75431;BMP280;64127;51.488;5.462;2023-11-19T01:45:30;100664.78;;;14.86
75431;BMP280;64127;51.488;5.462;2023-11-19T01:48:05;100669.09;;;14.83
75431;BMP280;64127;51.488;5.462;2023-11-19T01:50:37;100662.13;;;14.88
75431;BMP280;64127;51.488;5.462;2023-11-19T01:53:09;100665.69;;;14.88
75431;BMP280;64127;51.488;5.462;2023-11-19T01:55:41;100663.03;;;14.88
75431;BMP280;64127;51.488;5.462;2023-11-19T01:58:14;100663.00;;;14.87
75431;BMP280;64127;51.488;5.462;2023-11-19T02:00:46;100663.03;;;14.88
75431;BMP280;64127;51.488;5.462;2023-11-19T02:03:21;100665.63;;;14.87
75431;BMP280;64127;51.488;5.462;2023-11-19T02:05:53;100672.63;;;14.85
75431;BMP280;64127;51.488;5.462;2023-11-19T02:08:25;100672.63;;;14.85
75431;BMP280;64127;51.488;5.462;2023-11-19T02:10:57;100669.94;;;14.83
75431;BMP280;64127;51.488;5.462;2023-11-19T02:13:30;100662.91;;;14.82
75431;BMP280;64127;51.488;5.462;2023-11-19T02:16:02;100672.63;;;14.85
75431;BMP280;64127;51.488;5.462;2023-11-19T02:18:35;100662.91;;;14.82
75431;BMP280;64127;51.488;5.462;2023-11-19T02:21:07;100652.38;;;14.82
75431;BMP280;64127;51.488;5.462;2023-11-19T02:23:39;100655.78;;;14.78
75431;BMP280;64127;51.488;5.462;2023-11-19T02:28:58;100637.09;;;14.67
75431;BMP280;64127;51.488;5.462;2023-11-19T02:31:30;100643.28;;;14.69
75431;BMP280;64127;51.488;5.462;2023-11-19T02:34:02;100648.53;;;14.68
75431;BMP280;64127;51.488;5.462;2023-11-19T02:36:34;100637.94;;;14.65
75431;BMP280;64127;51.488;5.462;2023-11-19T02:39:07;100634.22;;;14.55
75431;BMP280;64127;51.488;5.462;2023-11-19T02:41:42;100644.81;;;14.58
75431;BMP280;64127;51.488;5.462;2023-11-19T02:44:14;100629.00;;;14.58
75431;BMP280;64127;51.488;5.462;2023-11-19T02:46:46;100622.78;;;14.56
75431;BMP280;64127;51.488;5.462;2023-11-19T02:49:20;100619.19;;;14.53
75431;BMP280;64127;51.488;5.462;2023-11-19T02:51:52;100622.72;;;14.53
75431;BMP280;64127;51.488;5.462;2023-11-19T02:54:24;100635.84;;;14.50
75431;BMP280;64127;51.488;5.462;2023-11-19T02:56:59;100636.69;;;14.49
75431;BMP280;64127;51.488;5.462;2023-11-19T02:59:33;100634.03;;;14.48
75431;BMP280;64127;51.488;5.462;2023-11-19T03:02:11;100625.19;;;14.46
75431;BMP280;64127;51.488;5.462;2023-11-19T03:04:43;100626.91;;;14.44
75431;BMP280;64127;51.488;5.462;2023-11-19T03:07:17;100625.97;;;14.40
75431;BMP280;64127;51.488;5.462;2023-11-19T03:09:49;100621.50;;;14.38
75431;BMP280;64127;51.488;5.462;2023-11-19T03:12:21;100632.00;;;14.36
75431;BMP280;64127;51.488;5.462;2023-11-19T03:14:54;100624.09;;;14.36
75431;BMP280;64127;51.488;5.462;2023-11-19T03:17:27;100626.72;;;14.35
75431;BMP280;64127;51.488;5.462;2023-11-19T03:19:59;100631.03;;;14.33
75431;BMP280;64127;51.488;5.462;2023-11-19T03:22:33;100635.41;;;14.32
75431;BMP280;64127;51.488;5.462;2023-11-19T03:25:08;100647.66;;;14.30
75431;BMP280;64127;51.488;5.462;2023-11-19T03:27:40;100643.25;;;14.29
75431;BMP280;64127;51.488;5.462;2023-11-19T03:30:15;100643.25;;;14.29
75431;BMP280;64127;51.488;5.462;2023-11-19T03:32:49;100641.47;;;14.28
75431;BMP280;64127;51.488;5.462;2023-11-19T03:35:22;100648.53;;;14.29
75431;BMP280;64127;51.488;5.462;2023-11-19T03:37:54;100647.56;;;14.26
75431;BMP280;64127;51.488;5.462;2023-11-19T03:40:26;100637.06;;;14.27
75431;BMP280;64127;51.488;5.462;2023-11-19T03:42:58;100640.47;;;14.23
75431;BMP280;64127;51.488;5.462;2023-11-19T03:45:30;100642.28;;;14.24
75431;BMP280;64127;51.488;5.462;2023-11-19T03:48:03;100656.34;;;14.26
75431;BMP280;64127;51.488;5.462;2023-11-19T03:50:35;100655.44;;;14.24
75431;BMP280;64127;51.488;5.462;2023-11-19T03:53:07;100651.03;;;14.23
75431;BMP280;64127;51.488;5.462;2023-11-19T03:55:39;100650.19;;;14.24
75431;BMP280;64127;51.488;5.462;2023-11-19T03:58:11;100651.81;;;14.19
75431;BMP280;64127;51.488;5.462;2023-11-19T04:00:44;100650.00;;;14.18
75431;BMP280;64127;51.488;5.462;2023-11-19T04:03:16;100645.63;;;14.18
75431;BMP280;64127;51.488;5.462;2023-11-19T04:05:48;100660.50;;;14.15
75431;BMP280;64127;51.488;5.462;2023-11-19T04:08:20;100646.47;;;14.16
75431;BMP280;64127;51.488;5.462;2023-11-19T04:10:52;100653.53;;;14.17
75431;BMP280;64127;51.488;5.462;2023-11-19T04:13:24;100643.75;;;14.13
75431;BMP280;64127;51.488;5.462;2023-11-19T04:15:57;100657.78;;;14.12
75431;BMP280;64127;51.488;5.462;2023-11-19T04:18:29;100663.09;;;14.13
75431;BMP280;64127;51.488;5.462;2023-11-19T04:21:01;100655.06;;;14.07
75431;BMP280;64127;51.488;5.462;2023-11-19T04:23:33;100656.97;;;14.14
75431;BMP280;64127;51.488;5.462;2023-11-19T04:26:05;100665.75;;;14.15
75431;BMP280;64127;51.488;5.462;2023-11-19T04:28:41;100668.44;;;14.16
75431;BMP280;64127;51.488;5.462;2023-11-19T04:31:13;100664.06;;;14.17
75431;BMP280;64127;51.488;5.462;2023-11-19T04:33:45;100657.91;;;14.16
75431;BMP280;64127;51.488;5.462;2023-11-19T04:36:19;100676.31;;;14.15
75431;BMP280;64127;51.488;5.462;2023-11-19T04:38:51;100657.75;;;14.10
75431;BMP280;64127;51.488;5.462;2023-11-19T04:41:24;100657.78;;;14.12
75431;BMP280;64127;51.488;5.462;2023-11-19T04:43:56;100652.50;;;14.12
75431;BMP280;64127;51.488;5.462;2023-11-19T04:46:28;100661.25;;;14.09
75431;BMP280;64127;51.488;5.462;2023-11-19T04:49:00;100655.00;;;14.06
75431;BMP280;64127;51.488;5.462;2023-11-19T04:51:41;100653.22;;;14.05
75431;BMP280;64127;51.488;5.462;2023-11-19T04:54:14;100667.41;;;14.10
75431;BMP280;64127;51.488;5.462;2023-11-19T04:56:46;100667.34;;;14.07
75431;BMP280;64127;51.488;5.462;2023-11-19T04:59:19;100668.31;;;14.10
75431;BMP280;64127;51.488;5.462;2023-11-19T05:01:51;100661.25;;;14.09
75431;BMP280;64127;51.488;5.462;2023-11-19T05:04:23;100668.25;;;14.09
75431;BMP280;64127;51.488;5.462;2023-11-19T05:06:55;100680.53;;;14.08
75431;BMP280;64127;51.488;5.462;2023-11-19T05:09:27;100668.25;;;14.07
75431;BMP280;64127;51.488;5.462;2023-11-19T05:11:59;100676.09;;;14.06
75431;BMP280;64127;51.488;5.462;2023-11-19T05:14:31;100679.56;;;14.03
75431;BMP280;64127;51.488;5.462;2023-11-19T05:17:03;100675.13;;;14.02
75431;BMP280;64127;51.488;5.462;2023-11-19T05:19:35;100683.88;;;14.01
75431;BMP280;64127;51.488;5.462;2023-11-19T05:22:08;100686.38;;;13.95
75431;BMP280;64127;51.488;5.462;2023-11-19T05:24:40;100676.78;;;13.99
75431;BMP280;64127;51.488;5.462;2023-11-19T05:27:12;100680.28;;;13.98
75431;BMP280;64127;51.488;5.462;2023-11-19T05:29:45;100668.81;;;13.96
75431;BMP280;64127;51.488;5.462;2023-11-19T05:32:17;100677.63;;;13.98
75431;BMP280;64127;51.488;5.462;2023-11-19T05:34:49;100685.47;;;13.93
75431;BMP280;64127;51.488;5.462;2023-11-19T05:37:23;100688.03;;;13.92
75431;BMP280;64127;51.488;5.462;2023-11-19T05:39:56;100686.31;;;13.92
75431;BMP280;64127;51.488;5.462;2023-11-19T05:42:28;100688.03;;;13.92
75431;BMP280;64127;51.488;5.462;2023-11-19T05:45:00;100698.56;;;13.92
75431;BMP280;64127;51.488;5.462;2023-11-19T05:47:33;100690.66;;;13.90
75431;BMP280;64127;51.488;5.462;2023-11-19T05:50:05;100700.31;;;13.90
75431;BMP280;64127;51.488;5.462;2023-11-19T05:52:38;100697.59;;;13.87
75431;BMP280;64127;51.488;5.462;2023-11-19T05:55:10;100693.19;;;13.87
75431;BMP280;64127;51.488;5.462;2023-11-19T05:57:42;100694.94;;;13.87
75431;BMP280;64127;51.488;5.462;2023-11-19T06:00:18;100697.59;;;13.87
75431;BMP280;64127;51.488;5.462;2023-11-19T06:02:50;100700.13;;;13.84
75431;BMP280;64127;51.488;5.462;2023-11-19T06:05:22;100700.03;;;13.81
75431;BMP280;64127;51.488;5.462;2023-11-19T06:07:54;100700.03;;;13.81
75431;BMP280;64127;51.488;5.462;2023-11-19T06:10:26;100690.34;;;13.78
75431;BMP280;64127;51.488;5.462;2023-11-19T06:13:02;100684.16;;;13.76
75431;BMP280;64127;51.488;5.462;2023-11-19T06:15:37;100689.34;;;13.75
75431;BMP280;64127;51.488;5.462;2023-11-19T06:18:09;100685.81;;;13.73
75431;BMP280;64127;51.488;5.462;2023-11-19T06:20:43;100683.19;;;13.73
75431;BMP280;64127;51.488;5.462;2023-11-19T06:23:15;100687.50;;;13.70
75431;BMP280;64127;51.488;5.462;2023-11-19T06:25:48;100690.06;;;13.67
75431;BMP280;64127;51.488;5.462;2023-11-19T06:28:20;100703.19;;;13.66
75431;BMP280;64127;51.488;5.462;2023-11-19T06:30:52;100702.31;;;13.67
75431;BMP280;64127;51.488;5.462;2023-11-19T06:33:24;100690.91;;;13.66
75431;BMP280;64127;51.488;5.462;2023-11-19T06:35:56;100689.13;;;13.65
75431;BMP280;64127;51.488;5.462;2023-11-19T06:38:28;100681.94;;;13.60
75431;BMP280;64127;51.488;5.462;2023-11-19T06:41:00;100685.47;;;13.60
75431;BMP280;64127;51.488;5.462;2023-11-19T06:43:33;100688.97;;;13.59
75431;BMP280;64127;51.488;5.462;2023-11-19T06:46:16;100681.78;;;13.52
75431;BMP280;64127;51.488;5.462;2023-11-19T06:48:48;100669.22;;;13.42
75431;BMP280;64127;51.488;5.462;2023-11-19T06:51:20;100681.94;;;13.58
75431;BMP280;64127;51.488;5.462;2023-11-19T06:53:53;100680.94;;;13.55
75431;BMP280;64127;51.488;5.462;2023-11-19T06:56:25;100688.78;;;13.52
75431;BMP280;64127;51.488;5.462;2023-11-19T06:58:57;100687.81;;;13.48
75431;BMP280;64127;51.488;5.462;2023-11-19T07:01:35;100703.63;;;13.50
75431;BMP280;64127;51.488;5.462;2023-11-19T07:04:08;100708.94;;;13.51
75431;BMP280;64127;51.488;5.462;2023-11-19T07:06:42;100713.25;;;13.49
75431;BMP280;64127;51.488;5.462;2023-11-19T07:09:14;100715.91;;;13.49
75431;BMP280;64127;51.488;5.462;2023-11-19T07:11:46;100713.25;;;13.49
75431;BMP280;64127;51.488;5.462;2023-11-19T07:14:18;100723.78;;;13.49
75431;BMP280;64127;51.488;5.462;2023-11-19T07:16:50;100727.28;;;13.48
75431;BMP280;64127;51.488;5.462;2023-11-19T07:19:22;100722.78;;;13.44
75431;BMP280;64127;51.488;5.462;2023-11-19T07:21:55;100720.25;;;13.47
75431;BMP280;64127;51.488;5.462;2023-11-19T07:24:28;100746.66;;;13.50
75431;BMP280;64127;51.488;5.462;2023-11-19T07:27:00;100742.22;;;13.49
75431;BMP280;64127;51.488;5.462;2023-11-19T07:29:32;100742.22;;;13.49
75431;BMP280;64127;51.488;5.462;2023-11-19T07:32:05;100746.63;;;13.49
75431;BMP280;64127;51.488;5.462;2023-11-19T07:34:37;100760.56;;;13.46
75431;BMP280;64127;51.488;5.462;2023-11-19T07:37:09;100748.38;;;13.48
75431;BMP280;64127;51.488;5.462;2023-11-19T07:39:41;100757.19;;;13.50
75431;BMP280;64127;51.488;5.462;2023-11-19T07:42:14;100755.50;;;13.52
75431;BMP280;64127;51.488;5.462;2023-11-19T07:44:45;100755.50;;;13.52
75431;BMP280;64127;51.488;5.462;2023-11-19T07:47:18;100752.00;;;13.53
75431;BMP280;64127;51.488;5.462;2023-11-19T07:49:50;100748.44;;;13.51
75431;BMP280;64127;51.488;5.462;2023-11-19T07:52:23;100759.94;;;13.55
75431;BMP280;64127;51.488;5.462;2023-11-19T07:54:55;100752.06;;;13.56
75431;BMP280;64127;51.488;5.462;2023-11-19T07:57:27;100740.78;;;13.60
75431;BMP280;64127;51.488;5.462;2023-11-19T08:00:03;100748.75;;;13.63
75431;BMP280;64127;51.488;5.462;2023-11-19T08:02:35;100738.16;;;13.60
75431;BMP280;64127;51.488;5.462;2023-11-19T08:05:08;100741.84;;;13.67
75431;BMP280;64127;51.488;5.462;2023-11-19T08:07:40;100749.78;;;13.68
75431;BMP280;64127;51.488;5.462;2023-11-19T08:10:13;100757.84;;;13.75
75431;BMP280;64127;51.488;5.462;2023-11-19T08:12:45;100756.94;;;13.74
75431;BMP280;64127;51.488;5.462;2023-11-19T08:15:17;100766.94;;;13.86
75431;BMP280;64127;51.488;5.462;2023-11-19T08:18:03;100763.53;;;13.90
75431;BMP280;64127;51.488;5.462;2023-11-19T08:20:35;100753.97;;;13.93
75431;BMP280;64127;51.488;5.462;2023-11-19T08:23:07;100754.94;;;13.97
75431;BMP280;64127;51.488;5.462;2023-11-19T08:25:39;100759.41;;;14.01
75431;BMP280;64127;51.488;5.462;2023-11-19T08:28:11;100756.97;;;14.07
75431;BMP280;64127;51.488;5.462;2023-11-19T08:30:43;100767.66;;;14.13
75431;BMP280;64127;51.488;5.462;2023-11-19T08:33:16;100759.88;;;14.17
75431;BMP280;64127;51.488;5.462;2023-11-19T08:35:48;100757.31;;;14.22
75431;BMP280;64127;51.488;5.462;2023-11-19T08:38:20;100752.03;;;14.22
75431;BMP280;64127;51.488;5.462;2023-11-19T08:40:56;100759.19;;;14.26
75431;BMP280;64127;51.488;5.462;2023-11-19T08:43:32;100764.59;;;14.32
75431;BMP280;64127;51.488;5.462;2023-11-19T08:46:09;100762.97;;;14.36
75431;BMP280;64127;51.488;5.462;2023-11-19T08:48:41;100754.25;;;14.38
75431;BMP280;64127;51.488;5.462;2023-11-19T08:51:13;100745.47;;;14.39
75431;BMP280;64127;51.488;5.462;2023-11-19T08:53:45;100757.13;;;14.49
75431;BMP280;64127;51.488;5.462;2023-11-19T08:56:17;100752.91;;;14.55
75431;BMP280;64127;51.488;5.462;2023-11-19T08:58:49;100766.06;;;14.54
75431;BMP280;64127;51.488;5.462;2023-11-19T09:01:21;100758.19;;;14.55
75431;BMP280;64127;51.488;5.462;2023-11-19T09:03:53;100754.75;;;14.59
75431;BMP280;64127;51.488;5.462;2023-11-19T09:06:26;100761.75;;;14.57
75431;BMP280;64127;51.488;5.462;2023-11-19T09:08:59;100750.34;;;14.58
75431;BMP280;64127;51.488;5.462;2023-11-19T09:11:34;100765.34;;;14.62
75431;BMP280;64127;51.488;5.462;2023-11-19T09:14:06;100764.81;;;14.76
75431;BMP280;64127;51.488;5.462;2023-11-19T09:16:38;100759.72;;;14.85
75431;BMP280;64127;51.488;5.462;2023-11-19T09:19:10;100757.22;;;14.91
75431;BMP280;64127;51.488;5.462;2023-11-19T09:21:43;100748.63;;;15.01
75431;BMP280;64127;51.488;5.462;2023-11-19T09:24:15;100754.97;;;15.09
75431;BMP280;64127;51.488;5.462;2023-11-19T09:26:47;100752.41;;;15.12
75431;BMP280;64127;51.488;5.462;2023-11-19T09:29:20;100750.50;;;15.05
75431;BMP280;64127;51.488;5.462;2023-11-19T09:31:53;100746.94;;;15.04
75431;BMP280;64127;51.488;5.462;2023-11-19T09:34:25;100740.94;;;15.10
75431;BMP280;64127;51.488;5.462;2023-11-19T09:36:57;100741.00;;;15.14
75431;BMP280;64127;51.488;5.462;2023-11-19T09:39:29;100737.41;;;15.11
75431;BMP280;64127;51.488;5.462;2023-11-19T09:42:01;100744.38;;;15.07
75431;BMP280;64127;51.488;5.462;2023-11-19T09:44:34;100728.75;;;15.18
75431;BMP280;64127;51.488;5.462;2023-11-19T09:47:07;100740.50;;;15.32
75431;BMP280;64127;51.488;5.462;2023-11-19T09:49:40;100734.34;;;15.33
75431;BMP280;64127;51.488;5.462;2023-11-19T09:52:12;100744.25;;;15.45
75431;BMP280;64127;51.488;5.462;2023-11-19T09:54:44;100748.63;;;15.43
75431;BMP280;64127;51.488;5.462;2023-11-19T09:57:17;100759.16;;;15.41
75431;BMP280;64127;51.488;5.462;2023-11-19T09:59:51;100756.66;;;15.47
75431;BMP280;64127;51.488;5.462;2023-11-19T10:02:26;100748.03;;;15.56
75431;BMP280;64127;51.488;5.462;2023-11-19T10:05:07;100744.75;;;15.67
75431;BMP280;64127;51.488;5.462;2023-11-19T10:07:39;100747.41;;;15.67
75431;BMP280;64127;51.488;5.462;2023-11-19T10:10:12;100744.84;;;15.73
75431;BMP280;64127;51.488;5.462;2023-11-19T10:12:54;100742.56;;;15.92
75431;BMP280;64127;51.488;5.462;2023-11-19T10:15:36;100755.22;;;16.09
75431;BMP280;64127;51.488;5.462;2023-11-19T10:18:09;100729.78;;;16.19
75431;BMP280;64127;51.488;5.462;2023-11-19T10:20:42;100741.50;;;16.35
75431;BMP280;64127;51.488;5.462;2023-11-19T10:23:14;100748.66;;;16.42
75431;BMP280;64127;51.488;5.462;2023-11-19T10:25:47;100745.94;;;16.37
75431;BMP280;64127;51.488;5.462;2023-11-19T10:28:19;100745.84;;;16.31
75431;BMP280;64127;51.488;5.462;2023-11-19T10:30:56;100743.75;;;16.10
75431;BMP280;64127;51.488;5.462;2023-11-19T10:33:30;100743.56;;;16.00
75431;BMP280;64127;51.488;5.462;2023-11-19T10:36:02;100742.56;;;15.93
75431;BMP280;64127;51.488;5.462;2023-11-19T10:38:34;100736.31;;;15.88
75431;BMP280;64127;51.488;5.462;2023-11-19T10:41:07;100731.94;;;15.90
75431;BMP280;64127;51.488;5.462;2023-11-19T10:43:43;100730.19;;;15.91
75431;BMP280;64127;51.488;5.462;2023-11-19T10:46:19;100738.31;;;16.03
75431;BMP280;64127;51.488;5.462;2023-11-19T10:48:54;100729.63;;;16.10
75431;BMP280;64127;51.488;5.462;2023-11-19T10:51:29;100741.94;;;16.08
75431;BMP280;64127;51.488;5.462;2023-11-19T10:54:06;100746.56;;;16.19
75431;BMP280;64127;51.488;5.462;2023-11-19T10:56:40;100735.22;;;16.28
75431;BMP280;64127;51.488;5.462;2023-11-19T10:59:16;100730.75;;;16.22
75431;BMP280;64127;51.488;5.462;2023-11-19T11:01:56;100729.69;;;16.13
75431;BMP280;64127;51.488;5.462;2023-11-19T11:04:30;100723.56;;;16.17
75431;BMP280;64127;51.488;5.462;2023-11-19T11:07:07;100721.88;;;16.20
75431;BMP280;64127;51.488;5.462;2023-11-19T11:09:41;100727.88;;;16.09
75431;BMP280;64127;51.488;5.462;2023-11-19T11:12:13;100717.03;;;15.94
75431;BMP280;64127;51.488;5.462;2023-11-19T11:14:46;100718.63;;;15.84
75431;BMP280;64127;51.488;5.462;2023-11-19T11:17:24;100736.97;;;15.77
75431;BMP280;64127;51.488;5.462;2023-11-19T11:19:59;100724.41;;;15.63
75431;BMP280;64127;51.488;5.462;2023-11-19T11:22:53;100709.25;;;15.53
75431;BMP280;64127;51.488;5.462;2023-11-19T11:40:17;100716.97;;;15.01
75431;BMP280;64127;51.488;5.462;2023-11-19T11:42:55;100710.66;;;14.94
75431;BMP280;64127;51.488;5.462;2023-11-19T11:45:40;100704.31;;;14.85
75431;BMP280;64127;51.488;5.462;2023-11-19T11:48:20;100701.91;;;14.97
75431;BMP280;64127;51.488;5.462;2023-11-19T11:50:57;100683.03;;;15.20
75431;BMP280;64127;51.488;5.462;2023-11-19T11:53:30;100690.63;;;15.47
75431;BMP280;64127;51.488;5.462;2023-11-19T11:56:07;100685.66;;;15.64
75431;BMP280;64127;51.488;5.462;2023-11-19T11:58:40;100688.69;;;15.85
75431;BMP280;64127;51.488;5.462;2023-11-19T12:01:16;100688.06;;;16.03
75431;BMP280;64127;51.488;5.462;2023-11-19T12:03:55;100684.78;;;16.17
75431;BMP280;64127;51.488;5.462;2023-11-19T12:06:27;100690.34;;;16.34
75431;BMP280;64127;51.488;5.462;2023-11-19T12:09:00;100693.09;;;16.40
75431;BMP280;64127;51.488;5.462;2023-11-19T12:11:33;100677.31;;;16.48
75431;BMP280;64127;51.488;5.462;2023-11-19T12:14:06;100681.91;;;16.56
75431;BMP280;64127;51.488;5.462;2023-11-19T12:16:39;100674.81;;;16.55
75431;BMP280;64127;51.488;5.462;2023-11-19T12:19:12;100677.41;;;16.54
75431;BMP280;64127;51.488;5.462;2023-11-19T12:21:44;100668.59;;;16.53
75431;BMP280;64127;51.488;5.462;2023-11-19T12:24:16;100668.56;;;16.50
75431;BMP280;64127;51.488;5.462;2023-11-19T12:26:49;100660.63;;;16.50
75431;BMP280;64127;51.488;5.462;2023-11-19T12:29:24;100664.13;;;16.49
75431;BMP280;64127;51.488;5.462;2023-11-19T12:31:56;100661.63;;;16.57
75431;BMP280;64127;51.488;5.462;2023-11-19T12:34:45;100668.47;;;16.47
75431;BMP280;64127;51.488;5.462;2023-11-19T12:37:18;100680.56;;;16.30
75431;BMP280;64127;51.488;5.462;2023-11-19T12:39:50;100687.44;;;16.16
75431;BMP280;64127;51.488;5.462;2023-11-19T12:42:36;100682.78;;;16.03
75431;BMP280;64127;51.488;5.462;2023-11-19T12:45:09;100683.59;;;15.96
75431;BMP280;64127;51.488;5.462;2023-11-19T12:47:44;100679.91;;;15.88
75431;BMP280;64127;51.488;5.462;2023-11-19T12:50:19;100689.50;;;15.83
75431;BMP280;64127;51.488;5.462;2023-11-19T12:52:58;100677.03;;;15.76
75431;BMP280;64127;51.488;5.462;2023-11-19T12:55:30;100683.09;;;15.68
75431;BMP280;64127;51.488;5.462;2023-11-19T12:58:04;100683.88;;;15.61
75431;BMP280;64127;51.488;5.462;2023-11-19T13:00:36;100668.72;;;15.51
75431;BMP280;64127;51.488;5.462;2023-11-19T13:03:09;100680.16;;;15.52
75431;BMP280;64127;51.488;5.462;2023-11-19T13:05:41;100673.06;;;15.49
75431;BMP280;64127;51.488;5.462;2023-11-19T13:08:13;100669.53;;;15.49
75431;BMP280;64127;51.488;5.462;2023-11-19T13:13:20;100685.34;;;15.47
75431;BMP280;64127;51.488;5.462;2023-11-19T13:15:53;100683.44;;;15.40
75431;BMP280;64127;51.488;5.462;2023-11-19T13:18:25;100675.34;;;15.33
75431;BMP280;64127;51.488;5.462;2023-11-19T13:21:15;100680.59;;;15.31
75431;BMP280;64127;51.488;5.462;2023-11-19T13:23:47;100686.66;;;15.26
75431;BMP280;64127;51.488;5.462;2023-11-19T13:26:19;100698.91;;;15.22
75431;BMP280;64127;51.488;5.462;2023-11-19T13:28:51;100687.72;;;15.35
75431;BMP280;64127;51.488;5.462;2023-11-19T13:31:24;100679.53;;;15.66
75431;BMP280;64127;51.488;5.462;2023-11-19T13:33:56;100669.56;;;16.03
75431;BMP280;64127;51.488;5.462;2023-11-19T13:36:30;100659.16;;;16.12
75431;BMP280;64127;51.488;5.462;2023-11-19T13:39:03;100665.22;;;16.05
75431;BMP280;64127;51.488;5.462;2023-11-19T13:41:35;100659.00;;;16.03
75431;BMP280;64127;51.488;5.462;2023-11-19T13:44:07;100664.16;;;15.94
75431;BMP280;64127;51.488;5.462;2023-11-19T13:46:39;100655.03;;;15.77
75431;BMP280;64127;51.488;5.462;2023-11-19T13:49:11;100661.00;;;15.63
75431;BMP280;64127;51.488;5.462;2023-11-19T13:51:43;100659.81;;;15.48
75431;BMP280;64127;51.488;5.462;2023-11-19T13:54:16;100671.19;;;15.44
75431;BMP280;64127;51.488;5.462;2023-11-19T13:56:48;100663.16;;;15.39
75431;BMP280;64127;51.488;5.462;2023-11-19T13:59:20;100656.81;;;15.30
75431;BMP280;64127;51.488;5.462;2023-11-19T14:01:52;100651.34;;;15.20
75431;BMP280;64127;51.488;5.462;2023-11-19T14:04:24;100647.78;;;15.18
75431;BMP280;64127;51.488;5.462;2023-11-19T14:06:57;100639.78;;;15.14
75431;BMP280;64127;51.488;5.462;2023-11-19T14:09:29;100659.16;;;15.13
75431;BMP280;64127;51.488;5.462;2023-11-19T14:12:01;100654.66;;;15.10
75431;BMP280;64127;51.488;5.462;2023-11-19T14:14:33;100665.22;;;15.09
75431;BMP280;64127;51.488;5.462;2023-11-19T14:17:05;100659.81;;;15.03
75431;BMP280;64127;51.488;5.462;2023-11-19T14:19:41;100653.59;;;14.99
75431;BMP280;64127;51.488;5.462;2023-11-19T14:22:13;100665.00;;;14.98
75431;BMP280;64127;51.488;5.462;2023-11-19T14:24:46;100648.22;;;14.95
75431;BMP280;64127;51.488;5.462;2023-11-19T14:27:18;100657.09;;;14.98
75431;BMP280;64127;51.488;5.462;2023-11-19T14:29:50;100650.94;;;14.99
75431;BMP280;64127;51.488;5.462;2023-11-19T14:32:22;100645.63;;;14.98
75431;BMP280;64127;51.488;5.462;2023-11-19T14:34:54;100650.81;;;14.93
75431;BMP280;64127;51.488;5.462;2023-11-19T14:37:26;100651.59;;;14.88
75431;BMP280;64127;51.488;5.462;2023-11-19T14:39:59;100638.22;;;14.80
75431;BMP280;64127;51.488;5.462;2023-11-19T14:42:32;100632.06;;;14.80
75431;BMP280;64127;51.488;5.462;2023-11-19T14:45:06;100642.56;;;14.77
75431;BMP280;64127;51.488;5.462;2023-11-19T14:47:38;100651.34;;;14.76
75431;BMP280;64127;51.488;5.462;2023-11-19T14:50:11;100639.00;;;14.75